createdAt,value
2018-08-06T00:04:16.525Z,35.52
2018-08-06T00:09:20.145Z,35.10
2018-08-06T00:14:23.952Z,35.35
2018-08-06T00:19:27.609Z,35.54
2018-08-06T00:24:31.226Z,35.93
2018-08-06T00:29:34.884Z,36.14
2018-08-06T00:34:38.966Z,36.12
2018-08-06T00:39:42.719Z,35.81
2018-08-06T00:44:46.346Z,36.33
2018-08-06T00:49:50.002Z,36.25
2018-08-06T00:54:53.755Z,36.28
2018-08-06T00:59:57.430Z,36.49
2018-08-06T01:05:02.276Z,36.23
2018-08-06T01:10:07.427Z,36.48
2018-08-06T01:15:14.336Z,36.26
2018-08-06T01:20:18.026Z,36.54
2018-08-06T01:25:21.726Z,36.08
2018-08-06T01:30:25.431Z,36.03
2018-08-06T01:35:29.067Z,36.21
2018-08-06T01:40:32.817Z,36.58
2018-08-06T01:45:36.522Z,36.40
2018-08-06T01:50:40.177Z,36.45
2018-08-06T01:55:43.825Z,36.29
2018-08-06T02:00:47.518Z,36.33
2018-08-06T02:05:51.154Z,36.29
2018-08-06T02:10:54.920Z,36.56
2018-08-06T02:15:58.663Z,36.46
2018-08-06T02:21:02.363Z,36.55
2018-08-06T02:26:06.378Z,36.35
2018-08-06T02:31:10.103Z,36.31
2018-08-06T02:36:13.746Z,36.47
2018-08-06T02:41:17.480Z,36.43
2018-08-06T02:46:21.158Z,36.81
2018-08-06T02:51:24.938Z,36.60
2018-08-06T02:56:28.533Z,36.53
2018-08-06T03:01:32.133Z,36.99
2018-08-06T03:06:35.820Z,37.00
2018-08-06T03:11:39.927Z,36.80
2018-08-06T03:16:43.631Z,36.72
2018-08-06T03:21:47.249Z,36.70
2018-08-06T03:26:50.982Z,37.86
2018-08-06T03:31:54.602Z,39.39
2018-08-06T03:36:58.281Z,39.92
2018-08-06T03:42:01.973Z,40.78
2018-08-06T03:47:05.643Z,41.60
2018-08-06T03:52:09.353Z,42.14
2018-08-06T03:57:12.988Z,43.07
2018-08-06T04:02:16.630Z,43.13
2018-08-06T04:07:20.505Z,43.65
2018-08-06T04:12:24.128Z,45.99
2018-08-06T04:17:27.842Z,46.72
2018-08-06T04:22:31.566Z,47.06
2018-08-06T04:27:35.311Z,47.42
2018-08-06T04:32:38.994Z,47.88
2018-08-06T04:37:43.585Z,48.54
2018-08-06T04:42:47.218Z,48.85
2018-08-06T04:47:50.873Z,48.97
2018-08-06T04:52:54.661Z,49.23
2018-08-06T04:57:58.329Z,49.87
2018-08-06T05:03:01.970Z,50.23
2018-08-06T05:08:05.594Z,50.64
2018-08-06T05:13:09.219Z,50.51
2018-08-06T05:18:12.845Z,50.41
2018-08-06T05:23:16.526Z,50.47
2018-08-06T05:28:20.151Z,50.73
2018-08-06T05:33:23.818Z,49.90
2018-08-06T05:38:27.644Z,49.84
2018-08-06T05:43:31.411Z,50.29
2018-08-06T05:48:35.069Z,51.47
2018-08-06T05:53:38.826Z,51.25
2018-08-06T05:58:43.173Z,51.71
2018-08-06T06:03:46.902Z,50.38
2018-08-06T06:08:50.553Z,50.05
2018-08-06T06:13:54.266Z,49.46
2018-08-06T06:18:58.005Z,49.71
2018-08-06T06:24:01.685Z,48.75
2018-08-06T06:29:05.807Z,48.52
2018-08-06T06:34:09.754Z,48.09
2018-08-06T06:39:13.524Z,47.88
2018-08-06T06:44:19.095Z,48.60
2018-08-06T06:49:22.753Z,48.43
2018-08-06T06:54:26.511Z,48.26
2018-08-06T06:59:30.167Z,47.88
2018-08-06T07:04:33.890Z,47.53
2018-08-06T07:09:37.922Z,46.96
2018-08-06T07:14:41.558Z,47.00
2018-08-06T07:19:45.252Z,45.68
2018-08-06T07:24:48.956Z,45.55
2018-08-06T07:29:52.607Z,44.70
2018-08-06T07:34:56.311Z,44.22
2018-08-06T07:40:00.048Z,43.35
2018-08-06T07:45:06.814Z,42.50
2018-08-06T07:50:14.126Z,42.04
2018-08-06T07:55:17.908Z,41.97
2018-08-06T08:00:21.538Z,41.61
2018-08-06T08:05:25.184Z,42.44
2018-08-06T08:10:28.843Z,41.27
2018-08-06T08:15:32.596Z,41.56
2018-08-06T08:20:36.303Z,40.39
2018-08-06T08:25:39.941Z,38.28
2018-08-06T08:30:43.780Z,38.57
2018-08-06T08:35:47.397Z,39.07
2018-08-06T08:40:51.043Z,39.31
2018-08-06T08:45:55.374Z,39.30
2018-08-06T08:50:59.069Z,39.41
2018-08-06T08:56:02.762Z,39.23
2018-08-06T09:01:06.402Z,39.24
2018-08-06T09:06:10.111Z,38.98
2018-08-06T09:11:13.775Z,38.33
2018-08-06T09:16:17.386Z,37.75
2018-08-06T09:21:21.065Z,37.65
2018-08-06T09:26:24.720Z,38.33
2018-08-06T09:31:28.299Z,37.49
2018-08-06T09:36:32.045Z,37.15
2018-08-06T09:41:36.249Z,36.90
2018-08-06T09:46:39.877Z,36.76
2018-08-06T09:51:43.531Z,37.38
2018-08-06T09:56:47.182Z,37.11
2018-08-06T10:01:56.394Z,36.33
2018-08-06T10:07:00.130Z,37.67
2018-08-06T10:12:04.233Z,38.52
2018-08-06T10:17:07.907Z,35.66
2018-08-06T10:22:11.650Z,35.40
2018-08-06T10:27:15.443Z,36.20
2018-08-06T10:32:19.397Z,36.13
2018-08-06T10:37:22.989Z,35.62
2018-08-06T10:42:26.671Z,35.78
2018-08-06T10:47:30.388Z,35.62
2018-08-06T10:52:34.198Z,35.28
2018-08-06T10:57:38.394Z,35.28
2018-08-06T11:02:42.058Z,36.60
2018-08-06T11:07:45.768Z,37.13
2018-08-06T11:12:49.548Z,37.75
2018-08-06T11:17:53.163Z,37.21
2018-08-06T11:22:56.859Z,37.45
2018-08-06T11:28:00.562Z,36.67
2018-08-06T11:33:04.229Z,36.72
2018-08-06T11:38:07.903Z,36.49
2018-08-06T11:43:11.561Z,36.92
2018-08-06T11:48:15.314Z,34.73
2018-08-06T11:53:19.088Z,34.84
2018-08-06T11:58:22.865Z,34.17
2018-08-06T12:03:26.475Z,35.23
2018-08-06T12:08:30.313Z,34.86
2018-08-06T12:13:33.964Z,34.75
2018-08-06T12:18:37.605Z,34.45
2018-08-06T12:23:41.323Z,34.88
2018-08-06T12:28:45.138Z,34.54
2018-08-06T12:33:48.895Z,35.26
2018-08-06T12:39:03.368Z,35.52
2018-08-06T12:44:08.240Z,35.90
2018-08-06T12:49:12.200Z,36.41
2018-08-06T12:54:15.885Z,36.88
2018-08-06T12:59:19.562Z,36.70
2018-08-06T13:04:23.275Z,37.05
2018-08-06T13:09:26.918Z,37.42
2018-08-06T13:14:30.649Z,37.64
2018-08-06T13:19:34.362Z,37.44
2018-08-06T13:24:38.030Z,38.13
2018-08-06T13:29:41.710Z,38.13
2018-08-06T13:34:45.427Z,38.75
2018-08-06T13:39:49.241Z,38.55
2018-08-06T13:44:52.926Z,38.67
2018-08-06T13:49:56.644Z,38.85
2018-08-06T13:55:00.429Z,39.22
2018-08-06T14:00:08.140Z,39.37
2018-08-06T14:12:49.298Z,39.24
2018-08-06T14:17:53.696Z,39.28
2018-08-06T14:22:57.451Z,39.29
2018-08-06T14:28:01.290Z,38.86
2018-08-06T14:33:04.988Z,38.57
2018-08-06T14:38:08.668Z,38.42
2018-08-06T14:43:12.289Z,38.52
2018-08-06T14:48:15.969Z,38.53
2018-08-06T14:53:19.617Z,38.68
2018-08-06T14:58:23.320Z,38.69
2018-08-06T15:03:27.143Z,39.07
2018-08-06T15:08:30.848Z,38.80
2018-08-06T15:13:34.680Z,38.85
2018-08-06T15:18:38.311Z,39.04
2018-08-06T15:23:41.947Z,38.87
2018-08-06T15:28:45.694Z,38.83
2018-08-06T15:33:49.490Z,38.84
2018-08-06T15:38:53.230Z,39.27
2018-08-06T15:43:57.115Z,38.87
2018-08-06T15:49:01.001Z,39.08
2018-08-06T15:54:05.290Z,38.45
2018-08-06T15:59:09.009Z,38.46
2018-08-06T16:04:12.824Z,38.36
2018-08-06T16:09:16.486Z,38.89
2018-08-06T16:14:20.310Z,39.22
2018-08-06T16:19:24.014Z,39.94
2018-08-06T16:24:27.697Z,39.93
2018-08-06T16:29:31.410Z,41.02
2018-08-06T16:34:35.003Z,41.83
2018-08-06T16:39:38.833Z,41.96
2018-08-06T16:44:42.621Z,42.05
2018-08-06T16:49:46.416Z,42.75
2018-08-06T16:54:50.153Z,42.40
2018-08-06T16:59:53.834Z,42.17
2018-08-06T17:04:57.617Z,42.07
2018-08-06T17:10:08.256Z,41.54
2018-08-06T17:15:13.460Z,41.42
2018-08-06T17:20:19.304Z,41.13
2018-08-06T17:25:22.963Z,41.73
2018-08-06T17:30:26.702Z,41.28
2018-08-06T17:35:30.470Z,41.41
2018-08-06T17:40:34.487Z,40.91
2018-08-06T17:45:41.022Z,41.33
2018-08-06T17:50:45.967Z,41.15
2018-08-06T17:55:50.477Z,41.08
2018-08-06T18:00:54.905Z,41.19
2018-08-06T18:05:58.556Z,40.95
2018-08-06T18:11:02.380Z,41.01
2018-08-06T18:16:06.246Z,41.17
2018-08-06T18:21:11.609Z,41.04
2018-08-06T18:26:15.800Z,40.92
2018-08-06T18:31:19.492Z,41.15
2018-08-06T18:36:23.325Z,41.38
2018-08-06T18:41:27.544Z,41.24
2018-08-06T18:46:31.702Z,40.97
2018-08-06T18:51:35.506Z,41.25
2018-08-06T18:56:40.238Z,41.21
2018-08-06T19:01:43.915Z,41.23
2018-08-06T19:06:47.554Z,41.39
2018-08-06T19:11:51.158Z,41.48
2018-08-06T19:16:54.862Z,38.70
2018-08-06T19:21:59.245Z,35.13
2018-08-06T19:27:02.911Z,34.73
2018-08-06T19:32:06.813Z,35.51
2018-08-06T19:37:16.098Z,34.42
2018-08-06T19:42:19.759Z,34.17
2018-08-06T19:47:23.442Z,33.75
2018-08-06T19:52:27.991Z,34.22
2018-08-06T19:57:31.783Z,34.58
2018-08-06T20:02:35.462Z,34.54
2018-08-06T20:07:39.174Z,34.59
2018-08-06T20:23:10.127Z,33.13
2018-08-06T20:28:14.181Z,33.44
2018-08-06T20:33:18.026Z,33.80
2018-08-06T20:38:24.318Z,33.02
2018-08-06T20:43:28.187Z,31.79
2018-08-06T20:48:43.964Z,30.98
2018-08-06T22:51:45.700Z,30.83
2018-08-06T22:56:49.347Z,34.39
2018-08-06T23:01:52.962Z,34.35
2018-08-06T23:06:56.697Z,34.47
2018-08-06T23:12:00.370Z,34.35
2018-08-06T23:17:04.050Z,35.13
2018-08-06T23:22:07.685Z,35.00
2018-08-06T23:27:11.349Z,35.03
2018-08-06T23:32:15.502Z,35.25
2018-08-06T23:37:19.161Z,35.33
2018-08-06T23:42:22.845Z,35.63
2018-08-06T23:47:26.490Z,35.46
2018-08-06T23:52:30.116Z,35.51
2018-08-06T23:57:33.799Z,35.25
